Fort Wayne, Indiana
Current Conditions -  °F | °C
As of 8:40 PM on Friday 19 Dec 2014 (Local Time) from KFWA Reporting Station
Overcast Overcast  
Wind Chill: 29°   Ceiling: 2100
Heat Index: 29°   Visibility: 10mi
Dew Point: 24°   Wind: 3mph
Humidity: 82%   Direction: 90°E
Pressure: 30.29"   Gusts: NA
Location:  41.08°N, 85.1°W
Report Text: KFWA 200140Z 09003KT 10SM BKN021 OVC034 M02/M04 A3029 RMK AO2 T10171044
Loading
Personal Weather Stations






























Interactive Weather Map New forecast layout! Learn more

10-Day Weather Forecast

Advertisements
Track Severe Weather on mobile